createdAt,value
2023-03-15T00:01:24.504Z,3.60
2023-03-15T00:03:51.572Z,2.90
2023-03-15T00:06:18.720Z,4.50
2023-03-15T00:08:48.937Z,2.10
2023-03-15T00:11:17.224Z,4.00
2023-03-15T00:13:45.446Z,2.10
2023-03-15T00:16:17.809Z,2.50
2023-03-15T00:18:48.006Z,3.00
2023-03-15T00:21:15.852Z,3.20
2023-03-15T00:23:42.924Z,1.10
2023-03-15T00:26:10.142Z,2.00
2023-03-15T00:28:37.347Z,1.60
2023-03-15T00:31:18.946Z,1.10
2023-03-15T00:33:47.292Z,2.40
2023-03-15T00:36:15.050Z,3.60
2023-03-15T00:38:44.472Z,2.00
2023-03-15T00:41:14.283Z,1.90
2023-03-15T00:43:42.261Z,1.40
2023-03-15T00:46:09.458Z,1.80
2023-03-15T00:48:37.366Z,2.80
2023-03-15T00:51:07.489Z,3.00
2023-03-15T00:53:35.870Z,2.80
2023-03-15T00:56:13.644Z,2.90
2023-03-15T00:58:44.300Z,2.50
2023-03-15T01:01:19.627Z,2.70
2023-03-15T01:03:47.735Z,3.30
2023-03-15T01:06:20.190Z,3.20
2023-03-15T01:08:47.960Z,3.00
2023-03-15T01:11:18.574Z,3.00
2023-03-15T01:13:45.706Z,3.60
2023-03-15T01:16:14.349Z,3.90
2023-03-15T01:18:42.118Z,2.90
2023-03-15T01:21:11.546Z,3.00
2023-03-15T01:23:39.349Z,3.00
2023-03-15T01:26:08.705Z,4.90
2023-03-15T01:28:35.936Z,3.00
2023-03-15T01:31:03.794Z,4.30
2023-03-15T01:33:31.370Z,3.90
2023-03-15T01:36:00.427Z,5.90
2023-03-15T01:38:27.871Z,4.00
2023-03-15T01:40:55.095Z,4.30
2023-03-15T01:43:24.723Z,4.10
2023-03-15T01:46:18.281Z,5.60
2023-03-15T01:49:17.552Z,3.90
2023-03-15T01:52:09.431Z,5.90
2023-03-15T01:54:39.497Z,5.00
2023-03-15T01:57:11.639Z,4.10
2023-03-15T01:59:46.897Z,4.20
2023-03-15T02:02:15.271Z,2.80
2023-03-15T02:05:07.133Z,4.70
2023-03-15T02:07:34.934Z,3.70
2023-03-15T02:10:14.403Z,5.00
2023-03-15T02:12:46.265Z,5.10
2023-03-15T02:15:14.308Z,5.50
2023-03-15T02:17:43.642Z,3.40
2023-03-15T02:20:27.768Z,3.00
2023-03-15T02:23:04.479Z,3.90
2023-03-15T02:25:34.850Z,2.60
2023-03-15T02:28:03.161Z,2.60
2023-03-15T02:30:30.195Z,3.20
2023-03-15T02:32:59.326Z,2.50
2023-03-15T02:35:28.698Z,6.30
2023-03-15T02:37:56.055Z,4.80
2023-03-15T02:40:24.748Z,5.30
2023-03-15T02:42:56.006Z,4.70
2023-03-15T02:45:24.280Z,3.90
2023-03-15T02:47:52.063Z,3.30
2023-03-15T02:50:19.613Z,6.20
2023-03-15T02:52:46.660Z,5.50
2023-03-15T02:55:13.707Z,5.60
2023-03-15T02:57:40.873Z,4.40
2023-03-15T03:00:14.566Z,5.30
2023-03-15T03:02:44.392Z,6.70
2023-03-15T03:05:13.179Z,5.30
2023-03-15T03:07:40.323Z,5.90
2023-03-15T03:10:08.113Z,5.60
2023-03-15T03:12:35.260Z,6.10
2023-03-15T03:15:05.077Z,6.10
2023-03-15T03:17:32.630Z,6.80
2023-03-15T03:19:59.685Z,7.60
2023-03-15T03:22:26.944Z,7.70
2023-03-15T03:24:54.085Z,6.20
2023-03-15T03:27:21.755Z,8.40
2023-03-15T03:29:49.289Z,6.70
2023-03-15T03:32:16.360Z,8.00
2023-03-15T03:34:48.777Z,7.70
2023-03-15T03:37:20.093Z,7.50
2023-03-15T03:39:47.573Z,13.10
2023-03-15T03:42:15.108Z,7.70
2023-03-15T03:44:42.279Z,6.80
2023-03-15T03:47:09.524Z,6.70
2023-03-15T03:49:36.799Z,8.00
2023-03-15T03:52:04.423Z,8.20
2023-03-15T03:54:32.431Z,8.60
2023-03-15T03:56:59.651Z,9.70
2023-03-15T03:59:26.818Z,9.00
2023-03-15T04:01:54.090Z,7.70
2023-03-15T04:04:21.270Z,7.60
2023-03-15T04:06:50.955Z,6.80
2023-03-15T04:09:17.992Z,8.20
2023-03-15T04:11:45.158Z,7.80
2023-03-15T04:14:14.341Z,9.60
2023-03-15T04:16:41.506Z,10.10
2023-03-15T04:19:10.193Z,8.80
2023-03-15T04:21:37.351Z,9.90
2023-03-15T04:24:04.914Z,7.80
2023-03-15T04:26:32.046Z,7.80
2023-03-15T04:28:59.635Z,8.70
2023-03-15T04:31:27.465Z,8.30
2023-03-15T04:33:55.176Z,7.90
2023-03-15T04:36:23.302Z,8.80
2023-03-15T04:38:50.511Z,9.00
2023-03-15T04:41:18.573Z,10.10
2023-03-15T04:43:46.047Z,8.30
2023-03-15T04:46:13.190Z,7.60
2023-03-15T04:48:40.267Z,8.60
2023-03-15T04:51:07.204Z,8.90
2023-03-15T04:53:34.352Z,9.40
2023-03-15T04:56:04.273Z,8.70
2023-03-15T04:58:32.243Z,9.20
2023-03-15T05:00:59.459Z,11.30
2023-03-15T05:03:26.746Z,10.20
2023-03-15T05:05:53.797Z,9.40
2023-03-15T05:08:21.184Z,11.20
2023-03-15T05:10:48.633Z,8.20
2023-03-15T05:13:15.896Z,8.50
2023-03-15T05:15:42.837Z,8.50
2023-03-15T05:18:10.106Z,9.50
2023-03-15T05:20:37.138Z,8.10
2023-03-15T05:23:05.117Z,8.40
2023-03-15T05:25:32.153Z,9.30
2023-03-15T05:27:59.328Z,7.50
2023-03-15T05:30:26.471Z,9.20
2023-03-15T05:32:53.730Z,10.00
2023-03-15T05:35:22.549Z,10.30
2023-03-15T05:37:49.669Z,11.90
2023-03-15T05:40:17.132Z,9.40
2023-03-15T05:42:44.386Z,9.20
2023-03-15T05:45:11.964Z,12.60
2023-03-15T05:47:39.103Z,10.10
2023-03-15T05:50:06.985Z,13.90
2023-03-15T05:52:34.523Z,9.50
2023-03-15T05:55:01.479Z,11.00
2023-03-15T05:57:28.750Z,14.60
2023-03-15T05:59:55.846Z,10.40
2023-03-15T06:02:23.049Z,11.50
2023-03-15T06:04:50.209Z,9.80
2023-03-15T06:07:17.363Z,10.10
2023-03-15T06:09:44.409Z,12.00
2023-03-15T06:12:11.966Z,9.50
2023-03-15T06:14:39.027Z,10.50
2023-03-15T06:17:06.115Z,11.30
2023-03-15T06:19:33.141Z,10.80
2023-03-15T06:22:00.289Z,13.40
2023-03-15T06:24:27.536Z,12.10
2023-03-15T06:26:57.374Z,11.60
2023-03-15T06:29:24.923Z,9.40
2023-03-15T06:31:53.200Z,12.20
2023-03-15T06:34:21.434Z,12.50
2023-03-15T06:36:49.956Z,9.60
2023-03-15T06:39:17.215Z,14.30
2023-03-15T06:41:44.569Z,15.50
2023-03-15T06:44:11.927Z,12.90
2023-03-15T06:46:40.126Z,13.40
2023-03-15T06:49:07.462Z,12.30
2023-03-15T06:51:34.826Z,11.20
2023-03-15T06:54:01.882Z,13.20
2023-03-15T06:56:29.533Z,12.70
2023-03-15T06:58:56.557Z,10.20
2023-03-15T07:01:23.872Z,12.00
2023-03-15T07:03:51.003Z,10.30
2023-03-15T07:06:18.162Z,11.00
2023-03-15T07:08:45.415Z,9.80
2023-03-15T07:11:13.692Z,8.00
2023-03-15T07:13:40.639Z,9.60
2023-03-15T07:16:07.830Z,10.80
2023-03-15T07:18:35.058Z,9.20
2023-03-15T07:21:03.335Z,9.00
2023-03-15T07:23:31.145Z,8.20
2023-03-15T07:25:58.365Z,9.90
2023-03-15T07:28:26.189Z,12.90
2023-03-15T07:30:57.792Z,9.10
2023-03-15T07:33:26.356Z,8.70
2023-03-15T07:35:54.574Z,9.30
2023-03-15T07:38:27.090Z,9.00
2023-03-15T07:40:54.482Z,12.00
2023-03-15T07:43:22.158Z,10.50
2023-03-15T07:45:49.607Z,9.70
2023-03-15T07:48:17.067Z,11.70
2023-03-15T07:50:45.844Z,11.90
2023-03-15T07:53:12.920Z,10.10
2023-03-15T07:55:40.170Z,6.50
2023-03-15T07:58:07.422Z,8.00
2023-03-15T08:00:34.473Z,11.20
2023-03-15T08:03:01.691Z,12.10
2023-03-15T08:05:29.297Z,6.90
2023-03-15T08:07:57.112Z,11.60
2023-03-15T08:10:24.228Z,11.30
2023-03-15T08:12:51.477Z,9.40
2023-03-15T08:15:19.654Z,6.60
2023-03-15T08:17:49.814Z,7.00
2023-03-15T08:20:20.402Z,10.80
2023-03-15T08:22:49.102Z,9.30
2023-03-15T08:25:19.076Z,7.70
2023-03-15T08:27:46.576Z,9.60
2023-03-15T08:30:15.356Z,10.60
2023-03-15T08:32:44.859Z,13.40
2023-03-15T08:35:15.653Z,9.60
2023-03-15T08:37:48.165Z,8.00
2023-03-15T08:40:26.570Z,9.20
2023-03-15T08:42:54.471Z,7.00
2023-03-15T08:45:24.234Z,7.40
2023-03-15T08:47:58.434Z,9.00
2023-03-15T08:50:26.961Z,8.70
2023-03-15T08:52:54.248Z,8.40
2023-03-15T08:55:21.485Z,6.80
2023-03-15T08:57:48.487Z,8.30
2023-03-15T09:00:20.941Z,11.30
2023-03-15T09:02:49.706Z,9.60
2023-03-15T09:05:17.064Z,7.10
2023-03-15T09:07:47.204Z,8.70
2023-03-15T09:10:16.169Z,7.50
2023-03-15T09:12:44.713Z,5.30
2023-03-15T09:15:12.237Z,9.20
2023-03-15T09:17:40.325Z,5.80
2023-03-15T09:20:12.782Z,7.30
2023-03-15T09:22:40.048Z,10.70
2023-03-15T09:25:08.396Z,5.80
2023-03-15T09:27:35.984Z,6.30
2023-03-15T09:30:04.166Z,6.20
2023-03-15T09:32:36.643Z,6.10
2023-03-15T09:35:05.284Z,5.70
2023-03-15T09:37:32.898Z,6.90
2023-03-15T09:40:00.360Z,7.90
2023-03-15T09:42:50.340Z,9.30
2023-03-15T09:45:24.134Z,8.40
2023-03-15T09:48:28.642Z,6.00
2023-03-15T09:51:04.016Z,7.40
2023-03-15T09:53:32.482Z,5.60
2023-03-15T09:56:00.051Z,8.80
2023-03-15T09:58:35.075Z,6.40
2023-03-15T10:01:07.610Z,4.30
2023-03-15T10:03:50.198Z,7.20
2023-03-15T10:06:29.914Z,4.60
2023-03-15T10:08:59.824Z,6.30
2023-03-15T10:11:45.726Z,5.50
2023-03-15T10:14:22.975Z,6.20
2023-03-15T10:16:52.239Z,4.90
2023-03-15T10:19:39.065Z,5.30
2023-03-15T10:22:26.289Z,9.50
2023-03-15T10:25:11.965Z,6.30
2023-03-15T10:27:43.573Z,5.40
2023-03-15T10:30:25.625Z,7.80
2023-03-15T10:33:03.642Z,4.70
2023-03-15T10:35:32.353Z,5.40
2023-03-15T10:37:59.725Z,5.90
2023-03-15T10:40:45.441Z,8.70
2023-03-15T10:43:16.582Z,6.70
2023-03-15T10:45:47.516Z,6.60
2023-03-15T10:48:14.790Z,4.90
2023-03-15T10:50:41.825Z,4.00
2023-03-15T10:53:11.750Z,4.60
2023-03-15T10:55:45.345Z,4.30
2023-03-15T10:58:19.466Z,2.60
2023-03-15T11:00:52.863Z,5.60
2023-03-15T11:03:23.176Z,4.90
2023-03-15T11:05:55.567Z,5.50
2023-03-15T11:08:37.964Z,5.90
2023-03-15T11:11:05.948Z,5.90
2023-03-15T11:13:38.125Z,2.90
2023-03-15T11:16:14.089Z,5.70
2023-03-15T11:18:53.687Z,5.60
2023-03-15T11:21:24.427Z,4.00
2023-03-15T11:23:52.402Z,5.60
2023-03-15T11:26:32.993Z,4.70
2023-03-15T11:29:22.283Z,6.50
2023-03-15T11:31:50.542Z,6.10
2023-03-15T11:34:29.228Z,6.50
2023-03-15T11:37:08.084Z,3.50
2023-03-15T11:40:10.469Z,7.20
2023-03-15T11:42:45.018Z,3.60
2023-03-15T11:45:54.000Z,4.30
2023-03-15T11:48:27.219Z,5.70
2023-03-15T11:50:55.718Z,6.10
2023-03-15T11:53:24.414Z,3.90
2023-03-15T11:55:55.243Z,3.50
2023-03-15T11:58:37.227Z,4.30
2023-03-15T12:01:05.983Z,7.20
2023-03-15T12:03:37.995Z,4.90
2023-03-15T12:06:07.057Z,5.20
2023-03-15T12:08:36.898Z,2.60
2023-03-15T12:11:14.584Z,6.60
2023-03-15T12:13:54.348Z,3.80
2023-03-15T12:16:23.060Z,5.20
2023-03-15T12:18:50.398Z,6.50
2023-03-15T12:21:34.743Z,6.20
2023-03-15T12:24:22.444Z,3.30
2023-03-15T12:26:51.587Z,5.00
2023-03-15T12:29:22.136Z,5.60
2023-03-15T12:32:04.597Z,2.30
2023-03-15T12:34:38.369Z,5.30
2023-03-15T12:37:13.733Z,4.20
2023-03-15T12:39:47.233Z,4.20
2023-03-15T12:42:57.574Z,4.40
2023-03-15T12:45:27.790Z,5.50
2023-03-15T12:47:54.846Z,4.90
2023-03-15T12:50:44.281Z,4.80
2023-03-15T12:53:37.236Z,3.60
2023-03-15T12:56:25.403Z,5.20
2023-03-15T12:58:55.561Z,5.80
2023-03-15T13:01:26.080Z,4.90
2023-03-15T13:03:58.423Z,6.10
2023-03-15T13:06:51.460Z,3.70
2023-03-15T13:09:55.661Z,3.00
2023-03-15T13:13:03.764Z,7.70
2023-03-15T13:15:55.406Z,5.50
2023-03-15T13:18:24.560Z,3.60
2023-03-15T13:21:12.114Z,4.90
2023-03-15T13:23:44.038Z,3.60
2023-03-15T13:26:35.718Z,7.90
2023-03-15T13:29:17.737Z,2.80
2023-03-15T13:31:46.661Z,7.00
2023-03-15T13:34:17.376Z,6.50
2023-03-15T13:37:02.659Z,2.90
2023-03-15T13:39:35.037Z,3.90
2023-03-15T13:42:16.201Z,3.20
2023-03-15T13:44:43.361Z,4.70
2023-03-15T13:47:19.831Z,5.10
2023-03-15T13:49:46.978Z,5.70
2023-03-15T13:52:15.091Z,3.10
2023-03-15T13:54:42.388Z,5.70
2023-03-15T13:57:22.660Z,7.00
2023-03-15T14:00:12.009Z,6.40
2023-03-15T14:03:05.655Z,4.90
2023-03-15T14:05:36.834Z,6.90
2023-03-15T14:08:06.909Z,9.10
2023-03-15T14:10:36.059Z,5.10
2023-03-15T14:13:33.294Z,6.30
2023-03-15T14:16:03.004Z,5.20
2023-03-15T14:18:37.961Z,6.00
2023-03-15T14:21:14.208Z,7.40
2023-03-15T14:23:45.091Z,6.70
2023-03-15T14:26:19.084Z,6.20
2023-03-15T14:29:02.637Z,5.20
2023-03-15T14:31:33.155Z,5.80
2023-03-15T14:34:19.106Z,7.60
2023-03-15T14:36:47.816Z,5.80
2023-03-15T14:39:23.951Z,5.70
2023-03-15T14:41:51.270Z,6.50
2023-03-15T14:44:18.451Z,5.70
2023-03-15T14:46:45.718Z,5.30
2023-03-15T14:49:26.307Z,5.90
2023-03-15T14:52:01.564Z,5.20
2023-03-15T14:54:32.889Z,3.90
2023-03-15T14:57:00.654Z,4.70
2023-03-15T14:59:27.803Z,5.40
2023-03-15T15:01:57.458Z,5.20
2023-03-15T15:04:27.521Z,4.50
2023-03-15T15:06:55.617Z,3.70
2023-03-15T15:09:25.196Z,5.30
2023-03-15T15:11:53.496Z,7.00
2023-03-15T15:14:22.197Z,5.00
2023-03-15T15:16:49.905Z,3.80
2023-03-15T15:19:17.215Z,5.20
2023-03-15T15:21:44.465Z,5.60
2023-03-15T15:24:19.394Z,4.20
2023-03-15T15:26:47.381Z,6.60
2023-03-15T15:29:16.155Z,4.90
2023-03-15T15:31:44.714Z,6.10
2023-03-15T15:34:13.030Z,5.20
2023-03-15T15:36:44.517Z,5.20
2023-03-15T15:39:21.879Z,4.80
2023-03-15T15:41:49.356Z,3.80
2023-03-15T15:44:18.956Z,6.30
2023-03-15T15:46:46.548Z,7.40
2023-03-15T15:49:13.967Z,3.60
2023-03-15T15:51:45.945Z,4.10
2023-03-15T15:54:19.004Z,4.60
2023-03-15T15:56:52.016Z,3.90
2023-03-15T15:59:20.181Z,5.60
2023-03-15T16:02:00.017Z,4.50
2023-03-15T16:04:33.046Z,3.50
2023-03-15T16:07:02.297Z,4.20
2023-03-15T16:09:31.623Z,5.60
2023-03-15T16:11:58.872Z,8.10
2023-03-15T16:14:25.930Z,3.90
2023-03-15T16:16:53.036Z,5.40
2023-03-15T16:19:20.344Z,4.70
2023-03-15T16:21:52.167Z,5.20
2023-03-15T16:24:29.183Z,3.60
2023-03-15T16:27:00.319Z,6.10
2023-03-15T16:29:33.416Z,4.60
2023-03-15T16:32:13.787Z,3.40
2023-03-15T16:34:45.602Z,5.80
2023-03-15T16:37:25.182Z,3.50
2023-03-15T16:39:56.067Z,4.80
2023-03-15T16:42:26.946Z,4.60
2023-03-15T16:44:54.214Z,4.00
2023-03-15T16:47:21.487Z,3.50
2023-03-15T16:49:48.519Z,6.60
2023-03-15T16:52:16.782Z,3.70
2023-03-15T16:54:45.502Z,3.60
2023-03-15T16:57:23.973Z,6.50
2023-03-15T16:59:51.689Z,3.40
2023-03-15T17:02:21.922Z,4.20
2023-03-15T17:04:49.354Z,4.00
2023-03-15T17:07:17.858Z,3.00
2023-03-15T17:09:47.551Z,3.70
2023-03-15T17:12:21.681Z,4.90
2023-03-15T17:14:49.124Z,2.80
2023-03-15T17:17:16.790Z,6.30
2023-03-15T17:19:44.282Z,6.00
2023-03-15T17:22:12.635Z,5.20
2023-03-15T17:24:41.099Z,5.40
2023-03-15T17:27:23.800Z,7.00
2023-03-15T17:29:51.452Z,8.90
2023-03-15T17:32:18.900Z,9.40
2023-03-15T17:34:47.986Z,9.90
2023-03-15T17:37:16.561Z,8.60
2023-03-15T17:39:45.199Z,9.20
2023-03-15T17:42:14.600Z,8.90
2023-03-15T17:44:42.849Z,7.50
2023-03-15T17:47:12.108Z,7.40
2023-03-15T17:49:39.908Z,6.00
2023-03-15T17:52:14.770Z,5.20
2023-03-15T17:54:42.318Z,6.10
2023-03-15T17:57:12.917Z,7.80
2023-03-15T17:59:41.979Z,4.40
2023-03-15T18:02:16.767Z,5.10
2023-03-15T18:04:44.560Z,5.50
2023-03-15T18:07:12.652Z,9.30
2023-03-15T18:09:41.311Z,7.00
2023-03-15T18:12:12.478Z,8.70
2023-03-15T18:14:41.860Z,7.90
2023-03-15T18:17:11.046Z,6.20
2023-03-15T18:19:38.968Z,8.90
2023-03-15T18:22:06.568Z,8.80
2023-03-15T18:24:34.739Z,9.10
2023-03-15T18:27:02.188Z,9.90
2023-03-15T18:29:29.452Z,8.60
2023-03-15T18:31:57.192Z,8.70
2023-03-15T18:34:24.582Z,6.90
2023-03-15T18:36:51.694Z,6.90
2023-03-15T18:39:18.999Z,6.90
2023-03-15T18:41:46.372Z,5.80
2023-03-15T18:44:13.724Z,7.70
2023-03-15T18:46:44.134Z,10.70
2023-03-15T18:49:11.305Z,9.20
2023-03-15T18:51:38.330Z,8.80
2023-03-15T18:54:06.227Z,7.40
2023-03-15T18:56:34.630Z,7.50
2023-03-15T18:59:02.675Z,7.00
2023-03-15T19:01:30.071Z,8.30
2023-03-15T19:03:57.383Z,8.90
2023-03-15T19:06:26.013Z,4.90
2023-03-15T19:08:56.082Z,8.00
2023-03-15T19:11:24.999Z,7.10
2023-03-15T19:13:52.343Z,9.20
2023-03-15T19:16:21.211Z,5.60
2023-03-15T19:18:49.815Z,6.50
2023-03-15T19:21:18.976Z,5.90
2023-03-15T19:23:47.346Z,5.70
2023-03-15T19:26:14.881Z,5.30
2023-03-15T19:28:41.940Z,8.20
2023-03-15T19:31:09.417Z,7.10
2023-03-15T19:33:36.648Z,7.90
2023-03-15T19:36:04.639Z,7.40
2023-03-15T19:38:31.711Z,5.90
2023-03-15T19:41:03.875Z,7.00
2023-03-15T19:43:32.359Z,5.70
2023-03-15T19:46:05.058Z,8.40
2023-03-15T19:48:32.251Z,4.80
2023-03-15T19:50:59.145Z,8.50
2023-03-15T19:53:26.358Z,10.50
2023-03-15T19:55:54.123Z,12.60
2023-03-15T19:58:21.278Z,8.40
2023-03-15T20:00:49.758Z,12.70
2023-03-15T20:03:17.024Z,7.00
2023-03-15T20:05:44.066Z,6.00
2023-03-15T20:08:11.230Z,6.20
2023-03-15T20:10:38.296Z,9.00
2023-03-15T20:13:05.453Z,8.00
2023-03-15T20:15:32.582Z,6.80
2023-03-15T20:17:59.603Z,4.50
2023-03-15T20:20:26.905Z,7.60
2023-03-15T20:22:54.357Z,10.40
2023-03-15T20:25:21.711Z,5.20
2023-03-15T20:27:48.741Z,4.90
2023-03-15T20:30:17.619Z,6.90
2023-03-15T20:32:45.095Z,6.70
2023-03-15T20:35:12.451Z,5.80
2023-03-15T20:37:43.328Z,7.60
2023-03-15T20:40:12.933Z,6.30
2023-03-15T20:42:41.410Z,6.10
2023-03-15T20:45:09.905Z,9.20
2023-03-15T20:47:38.363Z,6.30
2023-03-15T20:50:10.638Z,5.60
2023-03-15T20:52:37.930Z,8.50
2023-03-15T20:55:06.248Z,8.00
2023-03-15T20:57:33.887Z,8.10
2023-03-15T21:00:01.783Z,7.60
2023-03-15T21:02:29.841Z,8.10
2023-03-15T21:04:58.019Z,8.70
2023-03-15T21:07:26.092Z,8.10
2023-03-15T21:09:54.079Z,7.50
2023-03-15T21:12:22.334Z,8.90
2023-03-15T21:14:50.060Z,4.30
2023-03-15T21:17:18.281Z,7.80
2023-03-15T21:19:52.112Z,5.30
2023-03-15T21:22:20.781Z,5.20
2023-03-15T21:24:55.889Z,5.60
2023-03-15T21:27:26.666Z,7.20
2023-03-15T21:29:54.841Z,5.10
2023-03-15T21:32:22.875Z,7.30
2023-03-15T21:34:51.299Z,7.10
2023-03-15T21:37:19.375Z,6.60
2023-03-15T21:39:47.588Z,7.00
2023-03-15T21:42:15.905Z,6.90
2023-03-15T21:44:43.690Z,9.80
2023-03-15T21:47:12.250Z,4.70
2023-03-15T21:49:40.041Z,5.70
2023-03-15T21:52:07.671Z,5.70
2023-03-15T21:54:35.017Z,8.30
2023-03-15T21:57:02.271Z,5.80
2023-03-15T21:59:29.439Z,7.70
2023-03-15T22:01:57.832Z,6.40
2023-03-15T22:04:25.498Z,8.00
2023-03-15T22:06:53.139Z,9.80
2023-03-15T22:09:21.189Z,6.90
2023-03-15T22:11:48.433Z,6.10
2023-03-15T22:14:15.525Z,6.40
2023-03-15T22:16:42.628Z,6.70
2023-03-15T22:19:09.854Z,8.20
2023-03-15T22:21:36.951Z,7.00
2023-03-15T22:24:04.370Z,6.70
2023-03-15T22:26:31.735Z,7.40
2023-03-15T22:28:58.864Z,5.00
2023-03-15T22:31:25.921Z,6.60
2023-03-15T22:33:53.272Z,6.70
2023-03-15T22:36:20.741Z,9.40
2023-03-15T22:38:50.343Z,6.20
2023-03-15T22:41:19.474Z,5.90
2023-03-15T22:43:46.717Z,8.20
2023-03-15T22:46:13.811Z,8.80
2023-03-15T22:48:41.024Z,7.20
2023-03-15T22:51:15.677Z,6.30
2023-03-15T22:56:10.683Z,6.50
2023-03-15T22:58:38.098Z,6.40
2023-03-15T23:01:05.634Z,5.50
2023-03-15T23:03:32.938Z,10.50
2023-03-15T23:06:00.711Z,4.10
2023-03-15T23:08:28.275Z,6.00
2023-03-15T23:10:58.528Z,5.20
2023-03-15T23:13:25.863Z,7.20
2023-03-15T23:15:54.574Z,8.90
2023-03-15T23:18:22.349Z,6.20
2023-03-15T23:20:50.007Z,5.40
2023-03-15T23:23:17.152Z,6.70
2023-03-15T23:25:46.174Z,5.30
2023-03-15T23:28:14.102Z,8.10
2023-03-15T23:30:41.093Z,8.60
2023-03-15T23:33:08.790Z,6.30
2023-03-15T23:35:36.101Z,6.80
2023-03-15T23:38:03.345Z,5.20
2023-03-15T23:40:30.415Z,7.30
2023-03-15T23:43:00.499Z,5.20
2023-03-15T23:45:30.120Z,6.10
2023-03-15T23:47:57.919Z,6.70
2023-03-15T23:50:27.082Z,6.40
2023-03-15T23:52:55.468Z,6.30
2023-03-15T23:55:23.622Z,6.40
2023-03-15T23:57:50.690Z,10.50
